Terminal Aerodrome Forecast
Issued by NWS Knoxville/Tri Cities, TN

Home | Current Version | Previous Version | Text Only | Print | Product List | Glossary On
Versions: 1 2 3 4 5 6 7 8 9 10 11 12 13 14 15 16 17
000
FTUS44 KMRX 302335
TAFTRI
TAF
KTRI 302335Z 0100/0124 18008KT P6SM FEW070 BKN150
     FM010900 15005KT P6SM VCSH SCT050 BKN080
     FM011300 22012G20KT 5SM -SHRA BR SCT030 BKN050
     FM011800 23015G25KT P6SM SCT090=

USA.gov is the U.S. government's official web portal to all federal, state and local government web resources and services.